createdAt,value
2019-01-31T00:04:19.046Z,20.00
2019-01-31T00:09:26.645Z,20.06
2019-01-31T00:14:34.317Z,19.71
2019-01-31T00:19:42.191Z,19.52
2019-01-31T00:24:49.953Z,19.41
2019-01-31T00:29:57.749Z,19.17
2019-01-31T00:35:05.462Z,19.60
2019-01-31T00:40:13.206Z,19.37
2019-01-31T00:45:21.101Z,19.30
2019-01-31T00:50:28.741Z,20.13
2019-01-31T00:55:36.548Z,19.35
2019-01-31T01:00:44.676Z,20.13
2019-01-31T01:05:52.508Z,19.71
2019-01-31T01:11:00.111Z,19.82
2019-01-31T01:16:07.790Z,19.34
2019-01-31T01:21:15.449Z,20.47
2019-01-31T01:26:24.101Z,19.31
2019-01-31T01:31:31.717Z,20.43
2019-01-31T01:36:39.435Z,21.00
2019-01-31T01:41:47.133Z,19.71
2019-01-31T01:46:54.797Z,20.45
2019-01-31T01:52:02.411Z,20.52
2019-01-31T01:57:10.247Z,21.51
2019-01-31T02:02:17.982Z,22.31
2019-01-31T02:07:25.629Z,22.06
2019-01-31T02:12:33.250Z,21.60
2019-01-31T02:17:40.929Z,21.04
2019-01-31T02:22:49.230Z,22.03
2019-01-31T02:27:56.870Z,22.98
2019-01-31T02:33:04.466Z,23.33
2019-01-31T02:38:12.086Z,24.78
2019-01-31T02:43:19.926Z,24.28
2019-01-31T02:48:27.553Z,24.12
2019-01-31T02:53:35.320Z,24.24
2019-01-31T02:58:43.077Z,23.84
2019-01-31T03:03:50.966Z,25.29
2019-01-31T03:08:58.539Z,25.08
2019-01-31T03:14:10.386Z,25.07
2019-01-31T03:19:13.470Z,25.76
2019-01-31T03:24:21.175Z,25.34
2019-01-31T03:29:28.870Z,25.59
2019-01-31T03:34:36.462Z,25.07
2019-01-31T03:39:44.166Z,24.78
2019-01-31T03:44:52.193Z,25.09
2019-01-31T03:50:00.478Z,38.89
2019-01-31T03:55:08.014Z,25.92
2019-01-31T04:00:15.646Z,37.92
2019-01-31T04:05:23.261Z,25.89
2019-01-31T04:10:30.998Z,26.59
2019-01-31T04:15:38.772Z,25.97
2019-01-31T04:20:46.527Z,26.16
2019-01-31T04:25:54.809Z,27.43
2019-01-31T04:31:02.617Z,26.33
2019-01-31T04:36:11.125Z,40.01
2019-01-31T04:41:18.750Z,27.06
2019-01-31T04:46:26.417Z,26.42
2019-01-31T04:51:34.042Z,27.30
2019-01-31T04:56:41.741Z,27.81
2019-01-31T05:01:49.441Z,26.41
2019-01-31T05:06:57.470Z,26.98
2019-01-31T05:12:05.178Z,25.05
2019-01-31T05:17:12.774Z,24.77
2019-01-31T05:22:20.450Z,25.52
2019-01-31T05:27:28.139Z,26.13
2019-01-31T05:32:35.757Z,24.92
2019-01-31T05:37:43.366Z,24.81
2019-01-31T05:42:51.078Z,24.09
2019-01-31T05:47:58.729Z,23.39
2019-01-31T05:53:06.445Z,23.59
2019-01-31T05:58:14.150Z,23.40
2019-01-31T06:03:21.950Z,21.84
2019-01-31T06:08:29.715Z,21.92
2019-01-31T06:13:37.369Z,21.77
2019-01-31T06:18:45.354Z,31.62
2019-01-31T06:23:52.938Z,21.28
2019-01-31T06:29:00.914Z,21.00
2019-01-31T06:34:08.528Z,30.86
2019-01-31T06:39:16.322Z,20.06
2019-01-31T06:44:24.111Z,20.30
2019-01-31T06:49:32.697Z,19.59
2019-01-31T06:54:40.285Z,20.27
2019-01-31T06:59:48.234Z,19.81
2019-01-31T07:04:55.981Z,20.38
2019-01-31T07:10:03.844Z,20.39
2019-01-31T07:15:11.789Z,19.83
2019-01-31T07:20:19.508Z,19.96
2019-01-31T07:25:27.138Z,20.47
2019-01-31T07:30:34.869Z,19.64
2019-01-31T07:35:42.574Z,19.08
2019-01-31T07:40:50.473Z,20.46
2019-01-31T07:45:58.464Z,20.42
2019-01-31T07:51:06.251Z,21.33
2019-01-31T07:56:13.833Z,20.98
2019-01-31T08:01:21.770Z,19.85
2019-01-31T08:06:29.370Z,21.49
2019-01-31T08:11:37.181Z,20.71
2019-01-31T08:16:44.784Z,19.64
2019-01-31T08:21:52.521Z,19.44
2019-01-31T08:27:00.298Z,19.54
2019-01-31T08:32:07.994Z,20.20
2019-01-31T08:37:16.532Z,20.30
2019-01-31T08:42:24.386Z,19.47
2019-01-31T08:47:31.990Z,19.18
2019-01-31T08:52:41.763Z,19.83
2019-01-31T08:57:47.927Z,20.09
2019-01-31T09:02:55.818Z,19.57
2019-01-31T09:08:04.603Z,19.51
2019-01-31T09:13:12.410Z,18.80
2019-01-31T09:18:20.198Z,18.39
2019-01-31T09:23:27.844Z,17.66
2019-01-31T09:28:35.610Z,17.82
2019-01-31T09:33:43.342Z,17.19
2019-01-31T09:38:50.946Z,16.91
2019-01-31T09:43:58.630Z,17.07
2019-01-31T09:49:06.298Z,16.40
2019-01-31T09:54:14.004Z,16.84
2019-01-31T09:59:21.669Z,16.75
2019-01-31T10:04:30.374Z,16.53
2019-01-31T10:09:37.966Z,16.70
2019-01-31T10:14:45.722Z,17.38
2019-01-31T10:19:53.600Z,16.89
2019-01-31T10:25:01.293Z,23.37
2019-01-31T10:30:08.870Z,15.89
2019-01-31T10:35:16.753Z,16.82
2019-01-31T10:40:24.465Z,17.18
2019-01-31T10:45:32.990Z,16.17
2019-01-31T10:50:41.021Z,26.22
2019-01-31T10:55:48.924Z,17.73
2019-01-31T11:00:56.564Z,17.32
2019-01-31T11:06:04.453Z,18.13
2019-01-31T11:11:12.113Z,18.96
2019-01-31T11:16:19.789Z,19.47
2019-01-31T11:21:27.406Z,20.39
2019-01-31T11:26:35.149Z,21.63
2019-01-31T11:31:42.742Z,21.87
2019-01-31T11:36:50.625Z,24.61
2019-01-31T11:41:58.386Z,25.03
2019-01-31T11:47:06.006Z,26.29
2019-01-31T11:52:13.600Z,24.32
2019-01-31T11:57:21.313Z,25.12
2019-01-31T12:02:29.133Z,23.84
2019-01-31T12:07:36.783Z,23.55
2019-01-31T12:12:44.549Z,23.23
2019-01-31T12:17:52.209Z,23.68
2019-01-31T12:22:59.814Z,24.41
2019-01-31T12:28:08.484Z,21.89
2019-01-31T12:33:16.162Z,22.49
2019-01-31T12:38:23.751Z,20.92
2019-01-31T12:43:35.330Z,22.88
2019-01-31T12:48:38.719Z,22.38
2019-01-31T12:53:46.341Z,23.34
2019-01-31T12:58:54.257Z,23.32
2019-01-31T13:04:02.101Z,22.94
2019-01-31T13:09:09.793Z,23.51
2019-01-31T13:14:17.401Z,22.79
2019-01-31T13:19:25.038Z,22.24
2019-01-31T13:24:32.891Z,22.86
2019-01-31T13:29:40.435Z,22.02
2019-01-31T13:34:49.082Z,21.14
2019-01-31T13:39:56.803Z,21.37
2019-01-31T13:45:04.518Z,22.42
2019-01-31T13:50:12.212Z,21.62
2019-01-31T13:55:19.794Z,21.70
2019-01-31T14:00:27.966Z,21.57
2019-01-31T14:05:35.652Z,22.22
2019-01-31T14:10:43.357Z,21.23
2019-01-31T14:15:53.790Z,20.18
2019-01-31T14:20:58.217Z,20.46
2019-01-31T14:26:05.918Z,19.39
2019-01-31T14:31:13.713Z,18.36
2019-01-31T14:36:21.331Z,18.02
2019-01-31T14:41:28.935Z,16.92
2019-01-31T14:46:36.549Z,17.15
2019-01-31T14:51:44.162Z,15.90
2019-01-31T14:56:51.859Z,15.04
2019-01-31T15:01:59.573Z,14.48
2019-01-31T15:07:07.285Z,15.51
2019-01-31T15:12:14.929Z,14.71
2019-01-31T15:17:22.650Z,13.98
2019-01-31T15:22:31.056Z,13.60
2019-01-31T15:27:38.811Z,13.27
2019-01-31T15:32:46.557Z,14.70
2019-01-31T15:37:54.548Z,14.36
2019-01-31T15:43:02.439Z,15.33
2019-01-31T15:48:10.712Z,15.93
2019-01-31T15:53:17.313Z,14.68
2019-01-31T15:58:25.176Z,14.90
2019-01-31T16:03:33.164Z,14.88
2019-01-31T16:08:40.843Z,15.07
2019-01-31T16:13:48.815Z,16.08
2019-01-31T16:18:56.338Z,17.00
2019-01-31T16:24:04.262Z,15.62
2019-01-31T16:29:12.017Z,15.23
2019-01-31T16:34:19.729Z,16.73
2019-01-31T16:39:27.441Z,17.72
2019-01-31T16:44:35.228Z,19.78
2019-01-31T16:49:42.898Z,22.27
2019-01-31T16:54:50.922Z,20.40
2019-01-31T16:59:58.701Z,18.22
2019-01-31T17:05:06.313Z,16.06
2019-01-31T17:10:13.980Z,15.03
2019-01-31T17:15:21.583Z,13.63
2019-01-31T17:20:29.262Z,12.67
2019-01-31T17:25:36.953Z,13.70
2019-01-31T17:30:44.898Z,14.60
2019-01-31T17:35:52.497Z,12.48
2019-01-31T17:41:00.393Z,11.40
2019-01-31T17:46:08.042Z,12.41
2019-01-31T17:51:15.752Z,11.52
2019-01-31T17:56:23.374Z,11.58
2019-01-31T18:01:31.254Z,11.26
2019-01-31T18:06:40.587Z,11.82
2019-01-31T18:11:48.314Z,11.70
2019-01-31T18:16:56.114Z,11.17
2019-01-31T18:22:03.775Z,10.91
2019-01-31T18:27:11.406Z,16.32
2019-01-31T18:32:19.213Z,10.26
2019-01-31T18:37:26.878Z,10.25
2019-01-31T18:42:34.539Z,11.34
2019-01-31T18:47:42.440Z,10.79
2019-01-31T18:52:50.218Z,10.79
2019-01-31T18:57:57.831Z,10.40
2019-01-31T19:03:05.525Z,10.42
2019-01-31T19:08:13.122Z,10.11
2019-01-31T19:13:20.816Z,9.22
2019-01-31T19:18:28.421Z,9.74
2019-01-31T19:23:36.006Z,8.56
2019-01-31T19:28:43.704Z,7.93
2019-01-31T19:33:51.887Z,6.76
2019-01-31T19:38:58.793Z,9.97
2019-01-31T19:44:06.558Z,6.44
2019-01-31T19:49:14.270Z,6.34
2019-01-31T19:54:22.043Z,6.72
2019-01-31T19:59:29.650Z,6.88
2019-01-31T20:04:37.525Z,6.55
2019-01-31T20:09:45.142Z,6.71
2019-01-31T20:14:53.313Z,6.82
2019-01-31T20:20:01.423Z,6.76
2019-01-31T20:25:09.142Z,6.66
2019-01-31T20:30:16.722Z,10.22
2019-01-31T20:35:24.303Z,6.84
2019-01-31T20:40:32.094Z,6.78
2019-01-31T20:45:39.826Z,6.53
2019-01-31T20:50:47.612Z,6.58
2019-01-31T20:55:55.160Z,6.62
2019-01-31T21:01:05.780Z,6.43
2019-01-31T21:06:10.243Z,6.66
2019-01-31T21:11:17.925Z,6.98
2019-01-31T21:16:26.517Z,6.76
2019-01-31T21:21:34.265Z,6.43
2019-01-31T21:26:42.006Z,6.23
2019-01-31T21:31:49.633Z,6.32
2019-01-31T21:36:57.506Z,6.40
2019-01-31T21:42:07.829Z,6.03
2019-01-31T21:47:12.529Z,5.97
2019-01-31T21:52:20.270Z,6.02
2019-01-31T21:57:28.286Z,5.97
2019-01-31T22:02:35.977Z,5.67
2019-01-31T22:07:43.837Z,5.77
2019-01-31T22:12:58.714Z,6.29
2019-01-31T22:17:59.721Z,6.21
2019-01-31T22:23:03.595Z,5.86
2019-01-31T22:28:11.354Z,6.00
2019-01-31T22:33:19.706Z,5.97
2019-01-31T22:38:27.410Z,5.61
2019-01-31T22:43:35.409Z,5.88
2019-01-31T22:48:43.272Z,6.05
2019-01-31T22:53:51.236Z,5.73
2019-01-31T22:58:59.034Z,5.86
2019-01-31T23:04:06.721Z,5.89
2019-01-31T23:09:14.427Z,5.45
2019-01-31T23:14:23.427Z,5.71
2019-01-31T23:19:31.285Z,6.47
2019-01-31T23:24:41.082Z,5.95
2019-01-31T23:29:49.139Z,6.45
2019-01-31T23:34:56.926Z,6.50
2019-01-31T23:40:04.720Z,6.18
2019-01-31T23:45:12.470Z,6.31
2019-01-31T23:50:20.532Z,6.26
2019-01-31T23:55:28.651Z,6.72
